Ana Sayfa
METAR-TAF:

METAR-TAF

Havaalanları :

Tunus-Kartaca Uluslararası Havalimanı

Tunus, Tunus

Enlem: 36-50N, Boylam: 010-14E, yükseklik: 3 m

Güncel hava durumu gözlemi

Rapor saat 19:00 UTC de 12 dakika önce yapıldı.
Rüzgar batıdan 7 kt
Sıcaklık 15°C
Nem 39%
Basınç 1023 hPa
Görüş mesafesi 10 km veya daha fazla
1500 m altında bulut yok ve kümülonimbus yok

METAR: DTTA 241900Z 27007KT CAVOK 15/01 Q1023

Saat: 20:12 (19:12 UTC)

Tahmin

Rapor saat 17:00 UTC de 2 saat ve 12 dakika önce yapıldı.
Ayın 24'si saat 18 UTC'den ayın 25'si saat 18 UTC'ye kadar geçerli Tahmin
Rüzgar batı/kuzeybatıdan 8 kt
Görüş mesafesi 10 km veya daha fazla
1500 m altında bulut yok ve kümülonimbus yok
Dönüşüyor
ayın 24'si saat 20 UTC'den ayın 24'si saat 22 UTC'ye kadar
Rüzgar güneybatıdan 4 kt
Dönüşüyor
ayın 25'si saat 13 UTC'den ayın 25'si saat 15 UTC'ye kadar
Rüzgar kuzeydoğudan 10 kt

TAF: DTTA 241700Z 2418/2518 29008KT CAVOK BECMG 2420/2422 23004KT BECMG 2513/2515 05010KT

4.000'den fazla havaalanı için hava durumu gözlemleri ve tahminleri (METAR ve TAF raporları).

Kullanılabilir istasyonlar harita üzerinde sarı ve kırmızı noktalarla gösterilir.

İstasyonun adını görmek için fareyi noktanın üzerinde gezdirin.

Sonrasında hava gözlem ve tahminlerini görmek için tıklayın.

Haritayı değiştirmek için: yaklaştırmak için siyah artı işaretli yeşil düğmeye ve uzaklaştırmak için de eksi işaretli düğmeye hızla tıklayın; bitişik haritalar için yeşil okları kullanın.


METAR-TAF: